sensor_id;sensor_type;location;lat;lon;timestamp;temperature;humidity
29237;DHT22;16266;50.866;4.398;2024-01-16T00:01:43;2.30;99.90
29237;DHT22;16266;50.866;4.398;2024-01-16T00:04:10;2.40;99.90
29237;DHT22;16266;50.866;4.398;2024-01-16T00:06:42;2.60;99.90
29237;DHT22;16266;50.866;4.398;2024-01-16T00:09:09;2.50;99.90
29237;DHT22;16266;50.866;4.398;2024-01-16T00:11:42;2.40;99.90
29237;DHT22;16266;50.866;4.398;2024-01-16T00:14:09;2.50;99.90
29237;DHT22;16266;50.866;4.398;2024-01-16T00:16:42;2.40;99.90
29237;DHT22;16266;50.866;4.398;2024-01-16T00:19:09;2.30;99.90
29237;DHT22;16266;50.866;4.398;2024-01-16T00:21:41;2.20;99.90
29237;DHT22;16266;50.866;4.398;2024-01-16T00:24:08;2.00;99.90
29237;DHT22;16266;50.866;4.398;2024-01-16T00:26:34;2.00;99.90
29237;DHT22;16266;50.866;4.398;2024-01-16T00:28:59;2.00;99.90
29237;DHT22;16266;50.866;4.398;2024-01-16T00:31:26;1.90;99.90
29237;DHT22;16266;50.866;4.398;2024-01-16T00:33:52;1.90;99.90
29237;DHT22;16266;50.866;4.398;2024-01-16T00:36:17;1.90;99.90
29237;DHT22;16266;50.866;4.398;2024-01-16T00:38:43;1.80;99.90
29237;DHT22;16266;50.866;4.398;2024-01-16T00:41:09;1.80;99.90
29237;DHT22;16266;50.866;4.398;2024-01-16T00:43:34;1.90;99.90
29237;DHT22;16266;50.866;4.398;2024-01-16T00:46:01;1.90;99.90
29237;DHT22;16266;50.866;4.398;2024-01-16T00:48:27;1.90;99.90
29237;DHT22;16266;50.866;4.398;2024-01-16T00:50:54;2.10;99.90
29237;DHT22;16266;50.866;4.398;2024-01-16T00:53:20;1.90;99.90
29237;DHT22;16266;50.866;4.398;2024-01-16T00:55:45;2.00;99.90
29237;DHT22;16266;50.866;4.398;2024-01-16T00:58:11;2.10;99.90
29237;DHT22;16266;50.866;4.398;2024-01-16T01:00:38;2.10;99.90
29237;DHT22;16266;50.866;4.398;2024-01-16T01:03:04;2.00;99.90
29237;DHT22;16266;50.866;4.398;2024-01-16T01:05:29;2.10;99.90
29237;DHT22;16266;50.866;4.398;2024-01-16T01:07:56;2.10;99.90
29237;DHT22;16266;50.866;4.398;2024-01-16T01:10:21;2.10;99.90
29237;DHT22;16266;50.866;4.398;2024-01-16T01:12:47;2.20;99.90
29237;DHT22;16266;50.866;4.398;2024-01-16T01:15:14;2.20;99.90
29237;DHT22;16266;50.866;4.398;2024-01-16T01:17:41;2.20;99.90
29237;DHT22;16266;50.866;4.398;2024-01-16T01:20:08;2.30;99.90
29237;DHT22;16266;50.866;4.398;2024-01-16T01:22:34;2.30;99.90
29237;DHT22;16266;50.866;4.398;2024-01-16T01:25:00;2.20;99.90
29237;DHT22;16266;50.866;4.398;2024-01-16T01:27:26;2.20;99.90
29237;DHT22;16266;50.866;4.398;2024-01-16T01:29:51;2.20;99.90
29237;DHT22;16266;50.866;4.398;2024-01-16T01:32:17;2.00;99.90
29237;DHT22;16266;50.866;4.398;2024-01-16T01:34:43;2.00;99.90
29237;DHT22;16266;50.866;4.398;2024-01-16T01:37:10;1.90;99.90
29237;DHT22;16266;50.866;4.398;2024-01-16T01:39:35;1.80;99.90
29237;DHT22;16266;50.866;4.398;2024-01-16T01:42:01;1.70;99.90
29237;DHT22;16266;50.866;4.398;2024-01-16T01:44:27;1.70;99.90
29237;DHT22;16266;50.866;4.398;2024-01-16T01:46:57;1.60;99.90
29237;DHT22;16266;50.866;4.398;2024-01-16T01:49:23;1.50;99.90
29237;DHT22;16266;50.866;4.398;2024-01-16T01:51:50;1.50;99.90
29237;DHT22;16266;50.866;4.398;2024-01-16T01:54:18;1.50;99.90
29237;DHT22;16266;50.866;4.398;2024-01-16T01:56:47;1.50;99.90
29237;DHT22;16266;50.866;4.398;2024-01-16T01:59:14;1.50;99.90
29237;DHT22;16266;50.866;4.398;2024-01-16T02:01:41;1.50;99.90
29237;DHT22;16266;50.866;4.398;2024-01-16T02:04:08;1.50;99.90
29237;DHT22;16266;50.866;4.398;2024-01-16T02:06:34;1.50;99.90
29237;DHT22;16266;50.866;4.398;2024-01-16T02:09:00;1.50;99.90
29237;DHT22;16266;50.866;4.398;2024-01-16T02:11:26;1.40;99.90
29237;DHT22;16266;50.866;4.398;2024-01-16T02:13:52;1.50;99.90
29237;DHT22;16266;50.866;4.398;2024-01-16T02:16:22;1.50;99.90
29237;DHT22;16266;50.866;4.398;2024-01-16T02:18:49;1.50;99.90
29237;DHT22;16266;50.866;4.398;2024-01-16T02:21:21;1.50;99.90
29237;DHT22;16266;50.866;4.398;2024-01-16T02:23:47;1.40;99.90
29237;DHT22;16266;50.866;4.398;2024-01-16T02:26:15;1.40;99.90
29237;DHT22;16266;50.866;4.398;2024-01-16T02:28:43;1.40;99.90
29237;DHT22;16266;50.866;4.398;2024-01-16T02:31:08;1.40;99.90
29237;DHT22;16266;50.866;4.398;2024-01-16T02:33:34;1.30;99.90
29237;DHT22;16266;50.866;4.398;2024-01-16T02:36:00;1.20;99.90
29237;DHT22;16266;50.866;4.398;2024-01-16T02:38:25;1.20;99.90
29237;DHT22;16266;50.866;4.398;2024-01-16T02:40:51;1.20;99.90
29237;DHT22;16266;50.866;4.398;2024-01-16T02:43:17;1.30;99.90
29237;DHT22;16266;50.866;4.398;2024-01-16T02:45:42;1.10;99.90
29237;DHT22;16266;50.866;4.398;2024-01-16T02:48:09;1.10;99.90
29237;DHT22;16266;50.866;4.398;2024-01-16T02:50:34;1.20;99.90
29237;DHT22;16266;50.866;4.398;2024-01-16T02:53:00;1.10;99.90
29237;DHT22;16266;50.866;4.398;2024-01-16T02:55:27;1.10;99.90
29237;DHT22;16266;50.866;4.398;2024-01-16T02:57:52;1.00;99.90
29237;DHT22;16266;50.866;4.398;2024-01-16T03:00:20;1.00;99.90
29237;DHT22;16266;50.866;4.398;2024-01-16T03:02:45;1.00;99.90
29237;DHT22;16266;50.866;4.398;2024-01-16T03:05:11;1.00;99.90
29237;DHT22;16266;50.866;4.398;2024-01-16T03:07:37;1.00;99.90
29237;DHT22;16266;50.866;4.398;2024-01-16T03:10:03;1.20;99.90
29237;DHT22;16266;50.866;4.398;2024-01-16T03:12:28;1.20;99.90
29237;DHT22;16266;50.866;4.398;2024-01-16T03:14:54;1.20;99.90
29237;DHT22;16266;50.866;4.398;2024-01-16T03:17:20;1.30;99.90
29237;DHT22;16266;50.866;4.398;2024-01-16T03:19:46;1.30;99.90
29237;DHT22;16266;50.866;4.398;2024-01-16T03:22:12;1.30;99.90
29237;DHT22;16266;50.866;4.398;2024-01-16T03:24:38;1.30;99.90
29237;DHT22;16266;50.866;4.398;2024-01-16T03:27:04;1.30;99.90
29237;DHT22;16266;50.866;4.398;2024-01-16T03:29:30;1.40;99.90
29237;DHT22;16266;50.866;4.398;2024-01-16T03:31:55;1.40;99.90
29237;DHT22;16266;50.866;4.398;2024-01-16T03:34:21;1.30;99.90
29237;DHT22;16266;50.866;4.398;2024-01-16T03:36:47;1.30;99.90
29237;DHT22;16266;50.866;4.398;2024-01-16T03:39:12;1.30;99.90
29237;DHT22;16266;50.866;4.398;2024-01-16T03:41:40;1.40;99.90
29237;DHT22;16266;50.866;4.398;2024-01-16T03:44:06;1.40;99.90
29237;DHT22;16266;50.866;4.398;2024-01-16T03:46:32;1.40;99.90
29237;DHT22;16266;50.866;4.398;2024-01-16T03:48:57;1.50;99.90
29237;DHT22;16266;50.866;4.398;2024-01-16T03:51:23;1.30;99.90
29237;DHT22;16266;50.866;4.398;2024-01-16T03:53:48;1.20;99.90
29237;DHT22;16266;50.866;4.398;2024-01-16T03:56:15;1.20;99.90
29237;DHT22;16266;50.866;4.398;2024-01-16T03:58:41;1.30;99.90
29237;DHT22;16266;50.866;4.398;2024-01-16T04:01:07;1.20;99.90
29237;DHT22;16266;50.866;4.398;2024-01-16T04:03:33;1.20;99.90
29237;DHT22;16266;50.866;4.398;2024-01-16T04:06:00;1.30;99.90
29237;DHT22;16266;50.866;4.398;2024-01-16T04:08:25;1.30;99.90
29237;DHT22;16266;50.866;4.398;2024-01-16T04:10:51;1.20;99.90
29237;DHT22;16266;50.866;4.398;2024-01-16T04:13:18;1.10;99.90
29237;DHT22;16266;50.866;4.398;2024-01-16T04:15:44;1.00;99.90
29237;DHT22;16266;50.866;4.398;2024-01-16T04:18:10;1.00;99.90
29237;DHT22;16266;50.866;4.398;2024-01-16T04:20:36;1.00;99.90
29237;DHT22;16266;50.866;4.398;2024-01-16T04:23:01;1.00;99.90
29237;DHT22;16266;50.866;4.398;2024-01-16T04:25:27;0.90;99.90
29237;DHT22;16266;50.866;4.398;2024-01-16T04:27:53;0.90;99.90
29237;DHT22;16266;50.866;4.398;2024-01-16T04:30:18;0.90;99.90
29237;DHT22;16266;50.866;4.398;2024-01-16T04:32:45;0.90;99.90
29237;DHT22;16266;50.866;4.398;2024-01-16T04:35:11;0.80;99.90
29237;DHT22;16266;50.866;4.398;2024-01-16T04:37:37;0.70;99.90
29237;DHT22;16266;50.866;4.398;2024-01-16T04:40:03;0.70;99.90
29237;DHT22;16266;50.866;4.398;2024-01-16T04:42:32;0.60;99.90
29237;DHT22;16266;50.866;4.398;2024-01-16T04:44:58;0.50;99.90
29237;DHT22;16266;50.866;4.398;2024-01-16T04:47:24;0.50;99.90
29237;DHT22;16266;50.866;4.398;2024-01-16T04:49:49;0.60;99.90
29237;DHT22;16266;50.866;4.398;2024-01-16T04:52:15;0.50;99.90
29237;DHT22;16266;50.866;4.398;2024-01-16T04:54:41;0.70;99.90
29237;DHT22;16266;50.866;4.398;2024-01-16T04:57:06;0.40;99.90
29237;DHT22;16266;50.866;4.398;2024-01-16T04:59:32;0.50;99.90
29237;DHT22;16266;50.866;4.398;2024-01-16T05:01:58;0.40;99.90
29237;DHT22;16266;50.866;4.398;2024-01-16T05:04:23;0.40;99.90
29237;DHT22;16266;50.866;4.398;2024-01-16T05:06:52;0.40;99.90
29237;DHT22;16266;50.866;4.398;2024-01-16T05:09:19;0.40;99.90
29237;DHT22;16266;50.866;4.398;2024-01-16T05:11:45;0.40;99.90
29237;DHT22;16266;50.866;4.398;2024-01-16T05:14:11;0.40;99.90
29237;DHT22;16266;50.866;4.398;2024-01-16T05:16:37;0.40;99.90
29237;DHT22;16266;50.866;4.398;2024-01-16T05:19:03;0.40;99.90
29237;DHT22;16266;50.866;4.398;2024-01-16T05:21:29;0.30;99.90
29237;DHT22;16266;50.866;4.398;2024-01-16T05:23:56;0.30;99.90
29237;DHT22;16266;50.866;4.398;2024-01-16T05:26:21;0.30;99.90
29237;DHT22;16266;50.866;4.398;2024-01-16T05:28:48;0.30;99.90
29237;DHT22;16266;50.866;4.398;2024-01-16T05:31:14;0.10;99.90
29237;DHT22;16266;50.866;4.398;2024-01-16T05:33:40;0.10;99.90
29237;DHT22;16266;50.866;4.398;2024-01-16T05:36:06;0.10;99.90
29237;DHT22;16266;50.866;4.398;2024-01-16T05:38:32;0.10;99.90
29237;DHT22;16266;50.866;4.398;2024-01-16T05:40:59;0.10;99.90
29237;DHT22;16266;50.866;4.398;2024-01-16T05:43:24;0.20;99.90
29237;DHT22;16266;50.866;4.398;2024-01-16T05:45:50;-0.10;99.90
29237;DHT22;16266;50.866;4.398;2024-01-16T05:48:17;0.00;99.90
29237;DHT22;16266;50.866;4.398;2024-01-16T05:50:42;-0.10;99.90
29237;DHT22;16266;50.866;4.398;2024-01-16T05:53:08;-0.10;99.90
29237;DHT22;16266;50.866;4.398;2024-01-16T05:55:34;-0.10;99.90
29237;DHT22;16266;50.866;4.398;2024-01-16T05:58:02;-0.10;99.90
29237;DHT22;16266;50.866;4.398;2024-01-16T06:00:28;0.00;99.90
29237;DHT22;16266;50.866;4.398;2024-01-16T06:02:53;0.00;99.90
29237;DHT22;16266;50.866;4.398;2024-01-16T06:05:19;-0.10;99.90
29237;DHT22;16266;50.866;4.398;2024-01-16T06:07:44;-0.20;99.90
29237;DHT22;16266;50.866;4.398;2024-01-16T06:10:14;-0.10;99.90
29237;DHT22;16266;50.866;4.398;2024-01-16T06:12:40;-0.10;99.90
29237;DHT22;16266;50.866;4.398;2024-01-16T06:15:06;0.00;99.90
29237;DHT22;16266;50.866;4.398;2024-01-16T06:17:32;0.00;99.90
29237;DHT22;16266;50.866;4.398;2024-01-16T06:19:58;0.00;99.90
29237;DHT22;16266;50.866;4.398;2024-01-16T06:22:23;0.10;99.90
29237;DHT22;16266;50.866;4.398;2024-01-16T06:24:49;0.10;99.90
29237;DHT22;16266;50.866;4.398;2024-01-16T06:27:14;0.20;99.90
29237;DHT22;16266;50.866;4.398;2024-01-16T06:29:45;0.20;99.90
29237;DHT22;16266;50.866;4.398;2024-01-16T06:32:11;0.40;99.90
29237;DHT22;16266;50.866;4.398;2024-01-16T06:34:36;0.40;99.90
29237;DHT22;16266;50.866;4.398;2024-01-16T06:37:02;0.50;99.90
29237;DHT22;16266;50.866;4.398;2024-01-16T06:39:28;0.60;99.90
29237;DHT22;16266;50.866;4.398;2024-01-16T06:41:53;0.60;99.90
29237;DHT22;16266;50.866;4.398;2024-01-16T06:44:19;0.70;99.90
29237;DHT22;16266;50.866;4.398;2024-01-16T06:46:45;0.70;99.90
29237;DHT22;16266;50.866;4.398;2024-01-16T06:49:10;0.70;99.90
29237;DHT22;16266;50.866;4.398;2024-01-16T06:51:36;0.70;99.90
29237;DHT22;16266;50.866;4.398;2024-01-16T06:54:02;0.70;99.90
29237;DHT22;16266;50.866;4.398;2024-01-16T06:56:29;0.70;99.90
29237;DHT22;16266;50.866;4.398;2024-01-16T06:58:54;0.70;99.90
29237;DHT22;16266;50.866;4.398;2024-01-16T07:01:20;0.60;99.90
29237;DHT22;16266;50.866;4.398;2024-01-16T07:03:46;0.60;99.90
29237;DHT22;16266;50.866;4.398;2024-01-16T07:06:11;0.50;99.90
29237;DHT22;16266;50.866;4.398;2024-01-16T07:08:37;0.50;99.90
29237;DHT22;16266;50.866;4.398;2024-01-16T07:11:03;0.50;99.90
29237;DHT22;16266;50.866;4.398;2024-01-16T07:13:33;0.40;99.90
29237;DHT22;16266;50.866;4.398;2024-01-16T07:15:59;0.40;99.90
29237;DHT22;16266;50.866;4.398;2024-01-16T07:18:27;0.40;99.90
29237;DHT22;16266;50.866;4.398;2024-01-16T07:20:52;0.40;99.90
29237;DHT22;16266;50.866;4.398;2024-01-16T07:23:18;0.40;99.90
29237;DHT22;16266;50.866;4.398;2024-01-16T07:25:44;0.40;99.90
29237;DHT22;16266;50.866;4.398;2024-01-16T07:28:09;0.40;99.90
29237;DHT22;16266;50.866;4.398;2024-01-16T07:30:35;0.40;99.90
29237;DHT22;16266;50.866;4.398;2024-01-16T07:33:02;0.40;99.90
29237;DHT22;16266;50.866;4.398;2024-01-16T07:35:28;0.60;99.90
29237;DHT22;16266;50.866;4.398;2024-01-16T07:37:54;0.80;99.90
29237;DHT22;16266;50.866;4.398;2024-01-16T07:40:19;0.70;99.90
29237;DHT22;16266;50.866;4.398;2024-01-16T07:42:46;0.70;99.90
29237;DHT22;16266;50.866;4.398;2024-01-16T07:45:11;0.70;99.90
29237;DHT22;16266;50.866;4.398;2024-01-16T07:47:37;0.70;99.90
29237;DHT22;16266;50.866;4.398;2024-01-16T07:50:03;0.70;99.90
29237;DHT22;16266;50.866;4.398;2024-01-16T07:52:29;0.70;99.90
29237;DHT22;16266;50.866;4.398;2024-01-16T07:54:55;0.70;99.90
29237;DHT22;16266;50.866;4.398;2024-01-16T07:57:20;0.70;99.90
29237;DHT22;16266;50.866;4.398;2024-01-16T07:59:46;0.70;99.90
29237;DHT22;16266;50.866;4.398;2024-01-16T08:02:12;0.80;99.90
29237;DHT22;16266;50.866;4.398;2024-01-16T08:04:39;0.70;99.90
29237;DHT22;16266;50.866;4.398;2024-01-16T08:07:04;0.80;99.90
29237;DHT22;16266;50.866;4.398;2024-01-16T08:09:30;0.80;99.90
29237;DHT22;16266;50.866;4.398;2024-01-16T08:11:56;0.90;99.90
29237;DHT22;16266;50.866;4.398;2024-01-16T08:14:21;1.00;99.90
29237;DHT22;16266;50.866;4.398;2024-01-16T08:16:47;1.10;99.90
29237;DHT22;16266;50.866;4.398;2024-01-16T08:19:13;1.20;99.90
29237;DHT22;16266;50.866;4.398;2024-01-16T08:21:39;1.40;99.90
29237;DHT22;16266;50.866;4.398;2024-01-16T08:24:05;1.50;99.90
29237;DHT22;16266;50.866;4.398;2024-01-16T08:26:31;1.50;99.90
29237;DHT22;16266;50.866;4.398;2024-01-16T08:28:57;1.40;99.90
29237;DHT22;16266;50.866;4.398;2024-01-16T08:31:23;1.40;99.90
29237;DHT22;16266;50.866;4.398;2024-01-16T08:33:49;1.50;99.90
29237;DHT22;16266;50.866;4.398;2024-01-16T08:36:14;1.50;99.90
29237;DHT22;16266;50.866;4.398;2024-01-16T08:38:40;1.60;99.90
29237;DHT22;16266;50.866;4.398;2024-01-16T08:41:06;1.60;99.90
29237;DHT22;16266;50.866;4.398;2024-01-16T08:43:35;1.70;99.90
29237;DHT22;16266;50.866;4.398;2024-01-16T08:46:01;1.70;99.90
29237;DHT22;16266;50.866;4.398;2024-01-16T08:48:26;1.70;99.90
29237;DHT22;16266;50.866;4.398;2024-01-16T08:50:52;1.70;99.90
29237;DHT22;16266;50.866;4.398;2024-01-16T08:53:20;1.80;99.90
29237;DHT22;16266;50.866;4.398;2024-01-16T08:55:45;1.80;99.90
29237;DHT22;16266;50.866;4.398;2024-01-16T08:58:11;1.80;99.90
29237;DHT22;16266;50.866;4.398;2024-01-16T09:00:36;1.90;99.90
29237;DHT22;16266;50.866;4.398;2024-01-16T09:03:04;2.00;99.90
29237;DHT22;16266;50.866;4.398;2024-01-16T09:05:29;2.10;99.90
29237;DHT22;16266;50.866;4.398;2024-01-16T09:07:55;2.20;99.90
29237;DHT22;16266;50.866;4.398;2024-01-16T09:10:21;2.50;99.90
29237;DHT22;16266;50.866;4.398;2024-01-16T09:12:46;2.50;99.90
29237;DHT22;16266;50.866;4.398;2024-01-16T09:15:13;2.50;99.90
29237;DHT22;16266;50.866;4.398;2024-01-16T09:17:39;2.60;99.90
29237;DHT22;16266;50.866;4.398;2024-01-16T09:20:06;2.80;99.90
29237;DHT22;16266;50.866;4.398;2024-01-16T09:22:32;2.90;99.90
29237;DHT22;16266;50.866;4.398;2024-01-16T09:24:58;2.70;99.90
29237;DHT22;16266;50.866;4.398;2024-01-16T09:27:23;2.80;99.90
29237;DHT22;16266;50.866;4.398;2024-01-16T09:29:49;2.70;99.90
29237;DHT22;16266;50.866;4.398;2024-01-16T09:32:15;2.70;99.90
29237;DHT22;16266;50.866;4.398;2024-01-16T09:34:40;2.60;99.90
29237;DHT22;16266;50.866;4.398;2024-01-16T09:37:06;2.70;99.90
29237;DHT22;16266;50.866;4.398;2024-01-16T09:39:32;2.80;99.90
29237;DHT22;16266;50.866;4.398;2024-01-16T09:42:00;2.80;99.90
29237;DHT22;16266;50.866;4.398;2024-01-16T09:44:29;2.80;99.90
29237;DHT22;16266;50.866;4.398;2024-01-16T09:46:55;3.00;99.90
29237;DHT22;16266;50.866;4.398;2024-01-16T09:49:21;3.30;99.90
29237;DHT22;16266;50.866;4.398;2024-01-16T09:51:49;3.20;99.90
29237;DHT22;16266;50.866;4.398;2024-01-16T09:54:14;3.40;99.90
29237;DHT22;16266;50.866;4.398;2024-01-16T09:56:44;3.60;99.90
29237;DHT22;16266;50.866;4.398;2024-01-16T09:59:15;3.50;99.90
29237;DHT22;16266;50.866;4.398;2024-01-16T10:01:42;3.60;99.90
29237;DHT22;16266;50.866;4.398;2024-01-16T10:04:09;4.30;99.90
29237;DHT22;16266;50.866;4.398;2024-01-16T10:06:34;5.70;99.90
29237;DHT22;16266;50.866;4.398;2024-01-16T10:09:03;6.90;99.90
29237;DHT22;16266;50.866;4.398;2024-01-16T10:11:30;7.60;95.60
29237;DHT22;16266;50.866;4.398;2024-01-16T10:13:58;8.40;95.70
29237;DHT22;16266;50.866;4.398;2024-01-16T10:19:28;9.40;69.40
29237;DHT22;16266;50.866;4.398;2024-01-16T10:22:05;9.70;50.00
29237;DHT22;16266;50.866;4.398;2024-01-16T10:24:31;9.80;48.70
29237;DHT22;16266;50.866;4.398;2024-01-16T10:27:01;10.00;33.90
29237;DHT22;16266;50.866;4.398;2024-01-16T10:29:30;10.40;31.40
29237;DHT22;16266;50.866;4.398;2024-01-16T10:31:59;10.20;25.60
29237;DHT22;16266;50.866;4.398;2024-01-16T10:34:25;8.90;28.10
29237;DHT22;16266;50.866;4.398;2024-01-16T10:36:52;8.70;27.60
29237;DHT22;16266;50.866;4.398;2024-01-16T10:39:23;8.20;34.50
29237;DHT22;16266;50.866;4.398;2024-01-16T10:41:57;8.10;29.40
29237;DHT22;16266;50.866;4.398;2024-01-16T10:44:23;7.80;31.00
29237;DHT22;16266;50.866;4.398;2024-01-16T10:46:48;7.80;40.00
29237;DHT22;16266;50.866;4.398;2024-01-16T10:49:14;7.90;38.00
29237;DHT22;16266;50.866;4.398;2024-01-16T10:51:43;8.40;34.30
29237;DHT22;16266;50.866;4.398;2024-01-16T10:54:13;8.80;26.80
29237;DHT22;16266;50.866;4.398;2024-01-16T10:56:44;9.30;23.20
29237;DHT22;16266;50.866;4.398;2024-01-16T10:59:31;9.50;16.60
29237;DHT22;16266;50.866;4.398;2024-01-16T11:02:02;10.00;12.60
29237;DHT22;16266;50.866;4.398;2024-01-16T11:04:29;9.70;19.00
29237;DHT22;16266;50.866;4.398;2024-01-16T11:06:55;9.80;11.00
29237;DHT22;16266;50.866;4.398;2024-01-16T11:09:21;10.20;12.40
29237;DHT22;16266;50.866;4.398;2024-01-16T11:11:47;10.60;5.50
29237;DHT22;16266;50.866;4.398;2024-01-16T11:14:16;10.90;2.40
29237;DHT22;16266;50.866;4.398;2024-01-16T11:16:42;10.60;1.00
29237;DHT22;16266;50.866;4.398;2024-01-16T11:19:09;10.40;1.00
29237;DHT22;16266;50.866;4.398;2024-01-16T11:21:36;10.00;1.00
29237;DHT22;16266;50.866;4.398;2024-01-16T11:24:02;10.20;7.50
29237;DHT22;16266;50.866;4.398;2024-01-16T11:26:34;10.40;1.00
29237;DHT22;16266;50.866;4.398;2024-01-16T11:31:52;10.70;1.00
29237;DHT22;16266;50.866;4.398;2024-01-16T11:37:13;10.40;1.00
29237;DHT22;16266;50.866;4.398;2024-01-16T11:39:39;10.30;1.00
29237;DHT22;16266;50.866;4.398;2024-01-16T11:42:06;10.50;1.00
29237;DHT22;16266;50.866;4.398;2024-01-16T11:44:47;10.20;1.00
29237;DHT22;16266;50.866;4.398;2024-01-16T11:47:22;9.90;1.00
29237;DHT22;16266;50.866;4.398;2024-01-16T11:49:51;10.00;1.00
29237;DHT22;16266;50.866;4.398;2024-01-16T11:52:53;10.20;1.00
29237;DHT22;16266;50.866;4.398;2024-01-16T11:55:30;10.50;1.00
29237;DHT22;16266;50.866;4.398;2024-01-16T12:00:32;10.20;1.00
29237;DHT22;16266;50.866;4.398;2024-01-16T12:03:02;10.10;1.00
29237;DHT22;16266;50.866;4.398;2024-01-16T12:05:28;10.10;1.00
29237;DHT22;16266;50.866;4.398;2024-01-16T12:07:54;10.10;1.00
29237;DHT22;16266;50.866;4.398;2024-01-16T12:10:22;10.00;1.00
29237;DHT22;16266;50.866;4.398;2024-01-16T12:12:48;10.00;1.00
29237;DHT22;16266;50.866;4.398;2024-01-16T12:15:16;10.40;1.00
29237;DHT22;16266;50.866;4.398;2024-01-16T12:17:58;10.70;1.00
29237;DHT22;16266;50.866;4.398;2024-01-16T12:20:29;10.50;1.00
29237;DHT22;16266;50.866;4.398;2024-01-16T12:22:57;10.10;1.00
29237;DHT22;16266;50.866;4.398;2024-01-16T12:25:23;9.50;4.90
29237;DHT22;16266;50.866;4.398;2024-01-16T12:27:59;9.50;1.00
29237;DHT22;16266;50.866;4.398;2024-01-16T12:30:33;9.10;1.50
29237;DHT22;16266;50.866;4.398;2024-01-16T12:33:21;9.00;12.40
29237;DHT22;16266;50.866;4.398;2024-01-16T12:35:47;9.10;7.10
29237;DHT22;16266;50.866;4.398;2024-01-16T12:38:14;8.80;8.50
29237;DHT22;16266;50.866;4.398;2024-01-16T12:40:51;8.60;6.90
29237;DHT22;16266;50.866;4.398;2024-01-16T12:43:18;8.50;11.60
29237;DHT22;16266;50.866;4.398;2024-01-16T12:45:44;7.90;13.20
29237;DHT22;16266;50.866;4.398;2024-01-16T12:48:10;7.80;15.00
29237;DHT22;16266;50.866;4.398;2024-01-16T12:50:36;7.80;17.20
29237;DHT22;16266;50.866;4.398;2024-01-16T12:53:07;7.90;14.40
29237;DHT22;16266;50.866;4.398;2024-01-16T12:55:37;7.90;22.70
29237;DHT22;16266;50.866;4.398;2024-01-16T12:58:19;7.50;14.90
29237;DHT22;16266;50.866;4.398;2024-01-16T13:00:46;7.20;19.10
29237;DHT22;16266;50.866;4.398;2024-01-16T13:05:46;6.40;24.40
29237;DHT22;16266;50.866;4.398;2024-01-16T13:08:20;5.90;31.00
29237;DHT22;16266;50.866;4.398;2024-01-16T13:11:10;5.60;36.70
29237;DHT22;16266;50.866;4.398;2024-01-16T13:13:36;5.20;36.80
29237;DHT22;16266;50.866;4.398;2024-01-16T13:16:04;5.00;40.10
29237;DHT22;16266;50.866;4.398;2024-01-16T13:18:31;4.90;45.40
29237;DHT22;16266;50.866;4.398;2024-01-16T13:20:58;4.70;47.20
29237;DHT22;16266;50.866;4.398;2024-01-16T13:23:25;4.50;47.10
29237;DHT22;16266;50.866;4.398;2024-01-16T13:25:51;4.30;48.80
29237;DHT22;16266;50.866;4.398;2024-01-16T13:28:18;4.20;54.60
29237;DHT22;16266;50.866;4.398;2024-01-16T13:30:46;4.20;52.20
29237;DHT22;16266;50.866;4.398;2024-01-16T13:33:12;4.10;56.40
29237;DHT22;16266;50.866;4.398;2024-01-16T13:35:43;4.10;58.50
29237;DHT22;16266;50.866;4.398;2024-01-16T13:38:10;4.00;58.90
29237;DHT22;16266;50.866;4.398;2024-01-16T13:40:36;4.20;59.70
29237;DHT22;16266;50.866;4.398;2024-01-16T13:43:05;4.10;57.70
29237;DHT22;16266;50.866;4.398;2024-01-16T13:45:34;4.10;62.10
29237;DHT22;16266;50.866;4.398;2024-01-16T13:48:01;4.10;67.70
29237;DHT22;16266;50.866;4.398;2024-01-16T13:50:27;4.10;68.00
29237;DHT22;16266;50.866;4.398;2024-01-16T13:52:53;4.00;66.70
29237;DHT22;16266;50.866;4.398;2024-01-16T13:55:22;3.90;70.80
29237;DHT22;16266;50.866;4.398;2024-01-16T13:57:47;3.90;71.50
29237;DHT22;16266;50.866;4.398;2024-01-16T14:00:14;4.10;73.00
29237;DHT22;16266;50.866;4.398;2024-01-16T14:02:42;4.00;61.50
29237;DHT22;16266;50.866;4.398;2024-01-16T14:05:12;4.00;63.80
29237;DHT22;16266;50.866;4.398;2024-01-16T14:07:41;4.00;69.20
29237;DHT22;16266;50.866;4.398;2024-01-16T14:10:08;3.90;68.50
29237;DHT22;16266;50.866;4.398;2024-01-16T14:12:40;3.90;61.50
29237;DHT22;16266;50.866;4.398;2024-01-16T14:15:09;4.00;61.60
29237;DHT22;16266;50.866;4.398;2024-01-16T14:17:42;3.90;58.70
29237;DHT22;16266;50.866;4.398;2024-01-16T14:20:10;3.80;60.30
29237;DHT22;16266;50.866;4.398;2024-01-16T14:22:37;3.80;56.70
29237;DHT22;16266;50.866;4.398;2024-01-16T14:25:08;3.80;58.70
29237;DHT22;16266;50.866;4.398;2024-01-16T14:27:41;3.70;55.70
29237;DHT22;16266;50.866;4.398;2024-01-16T14:30:15;3.70;55.40
29237;DHT22;16266;50.866;4.398;2024-01-16T14:32:42;3.70;61.00
29237;DHT22;16266;50.866;4.398;2024-01-16T14:35:09;3.60;63.10
29237;DHT22;16266;50.866;4.398;2024-01-16T14:37:36;3.60;61.00
29237;DHT22;16266;50.866;4.398;2024-01-16T14:40:03;3.60;59.80
29237;DHT22;16266;50.866;4.398;2024-01-16T14:42:32;3.50;62.40
29237;DHT22;16266;50.866;4.398;2024-01-16T14:44:59;3.60;65.10
29237;DHT22;16266;50.866;4.398;2024-01-16T14:47:25;3.60;59.20
29237;DHT22;16266;50.866;4.398;2024-01-16T14:49:51;3.60;58.80
29237;DHT22;16266;50.866;4.398;2024-01-16T14:52:20;3.60;57.70
29237;DHT22;16266;50.866;4.398;2024-01-16T14:54:45;3.60;58.20
29237;DHT22;16266;50.866;4.398;2024-01-16T14:57:11;3.60;59.10
29237;DHT22;16266;50.866;4.398;2024-01-16T14:59:37;3.60;65.70
29237;DHT22;16266;50.866;4.398;2024-01-16T15:02:03;3.50;69.10
29237;DHT22;16266;50.866;4.398;2024-01-16T15:04:41;3.50;73.00
29237;DHT22;16266;50.866;4.398;2024-01-16T15:07:08;3.50;68.10
29237;DHT22;16266;50.866;4.398;2024-01-16T15:09:34;3.60;73.30
29237;DHT22;16266;50.866;4.398;2024-01-16T15:12:06;3.50;70.90
29237;DHT22;16266;50.866;4.398;2024-01-16T15:14:33;3.50;77.70
29237;DHT22;16266;50.866;4.398;2024-01-16T15:17:00;3.50;79.10
29237;DHT22;16266;50.866;4.398;2024-01-16T15:19:26;3.50;76.10
29237;DHT22;16266;50.866;4.398;2024-01-16T15:21:52;3.50;77.80
29237;DHT22;16266;50.866;4.398;2024-01-16T15:24:18;3.40;73.40
29237;DHT22;16266;50.866;4.398;2024-01-16T15:26:54;3.40;74.80
29237;DHT22;16266;50.866;4.398;2024-01-16T15:29:20;3.30;80.80
29237;DHT22;16266;50.866;4.398;2024-01-16T15:31:46;3.10;81.40
29237;DHT22;16266;50.866;4.398;2024-01-16T15:34:12;3.00;90.00
29237;DHT22;16266;50.866;4.398;2024-01-16T15:36:38;2.90;90.70
29237;DHT22;16266;50.866;4.398;2024-01-16T15:39:03;2.90;91.10
29237;DHT22;16266;50.866;4.398;2024-01-16T15:41:30;2.90;90.70
29237;DHT22;16266;50.866;4.398;2024-01-16T15:43:56;2.80;91.20
29237;DHT22;16266;50.866;4.398;2024-01-16T15:46:23;2.70;93.00
29237;DHT22;16266;50.866;4.398;2024-01-16T15:48:48;2.60;95.00
29237;DHT22;16266;50.866;4.398;2024-01-16T15:51:16;2.60;94.60
29237;DHT22;16266;50.866;4.398;2024-01-16T15:53:42;2.50;97.80
29237;DHT22;16266;50.866;4.398;2024-01-16T15:56:08;2.50;98.00
29237;DHT22;16266;50.866;4.398;2024-01-16T15:58:35;2.40;99.90